Time;durP1;ratioP1;P1;durP2;ratioP2;P2;SDS_P1;SDS_P2;PMS_P1;PMS_P2;Temp;Humidity;BMP_temperature;BMP_pressure;BME280_temperature;BME280_humidity;BME280_pressure;Samples;Min_cycle;Max_cycle;Signal;HPM_P1;HPM_P2
2023/04/23 00:02:05;;;;;;;;;;;;;;;11.57;100.00;96083.19;5040229;28;20378;-69
2023/04/23 00:04:33;;;;;;;;;;;;;;;11.48;100.00;96080.81;5045280;28;20319;-68
2023/04/23 00:06:59;;;;;;;;;;;;;;;11.58;100.00;96077.31;5044512;28;19962;-67
2023/04/23 00:09:28;;;;;;;;;;;;;;;11.69;100.00;96082.06;5040478;28;20351;-72
2023/04/23 00:11:54;;;;;;;;;;;;;;;11.77;100.00;96069.91;5045966;28;20016;-73
2023/04/23 00:14:19;;;;;;;;;;;;;;;11.86;100.00;96082.06;5040290;28;19924;-73
2023/04/23 00:16:44;;;;;;;;;;;;;;;11.94;100.00;96082.91;5043216;28;20139;-72
2023/04/23 00:19:10;;;;;;;;;;;;;;;11.94;100.00;96084.84;5022577;28;19924;-72
2023/04/23 00:21:35;;;;;;;;;;;;;;;12.13;100.00;96089.19;5045024;28;20288;-72
2023/04/23 00:24:00;;;;;;;;;;;;;;;12.03;100.00;96088.78;5045047;28;19917;-71
2023/04/23 00:26:26;;;;;;;;;;;;;;;11.96;100.00;96090.75;5040529;28;19924;-72
2023/04/23 00:28:51;;;;;;;;;;;;;;;11.91;100.00;96088.38;5043690;28;20361;-73
2023/04/23 00:31:16;;;;;;;;;;;;;;;11.89;100.00;96096.19;5039484;28;19931;-71
2023/04/23 00:33:42;;;;;;;;;;;;;;;11.71;100.00;96093.41;5044149;28;19925;-72
2023/04/23 00:36:07;;;;;;;;;;;;;;;11.54;100.00;96086.69;5039907;28;20365;-72
2023/04/23 00:38:32;;;;;;;;;;;;;;;11.48;100.00;96087.06;5052116;28;19959;-73
2023/04/23 00:40:58;;;;;;;;;;;;;;;11.40;100.00;96093.72;5044656;28;19917;-72
2023/04/23 00:43:23;;;;;;;;;;;;;;;11.55;100.00;96091.81;5039276;28;20752;-73
2023/04/23 00:45:49;;;;;;;;;;;;;;;11.72;100.00;96090.28;5044044;28;19917;-73
2023/04/23 00:48:15;;;;;;;;;;;;;;;11.69;100.00;96084.81;5039648;28;20016;-72
2023/04/23 00:50:40;;;;;;;;;;;;;;;11.72;100.00;96086.75;5044986;28;19999;-72
2023/04/23 00:53:06;;;;;;;;;;;;;;;11.74;100.00;96087.13;5039736;28;19948;-71
2023/04/23 00:55:31;;;;;;;;;;;;;;;11.74;100.00;96093.44;5043793;28;19916;-72
2023/04/23 00:57:57;;;;;;;;;;;;;;;11.82;100.00;96094.22;5044460;28;19996;-71
2023/04/23 01:00:22;;;;;;;;;;;;;;;11.78;100.00;96093.44;5039340;28;20343;-70
2023/04/23 01:02:49;;;;;;;;;;;;;;;11.77;100.00;96089.09;5044685;28;19917;-69
2023/04/23 01:05:16;;;;;;;;;;;;;;;11.75;100.00;96094.97;5038865;28;20296;-70
2023/04/23 01:07:42;;;;;;;;;;;;;;;11.79;100.00;96095.00;5049177;28;19928;-70
2023/04/23 01:10:08;;;;;;;;;;;;;;;11.71;100.00;96096.94;5042987;28;19928;-71
2023/04/23 01:12:33;;;;;;;;;;;;;;;11.67;100.00;96098.91;5043456;28;19921;-70
2023/04/23 01:14:59;;;;;;;;;;;;;;;11.67;100.00;96096.16;5044158;28;20408;-70
2023/04/23 01:17:25;;;;;;;;;;;;;;;11.72;100.00;96103.22;5037456;28;19970;-69
2023/04/23 01:19:50;;;;;;;;;;;;;;;11.62;100.00;96096.53;5044039;28;19924;-71
2023/04/23 01:22:16;;;;;;;;;;;;;;;11.45;100.00;96109.00;5033054;28;19917;-69
2023/04/23 01:24:41;;;;;;;;;;;;;;;11.44;100.00;96110.19;5067142;28;19947;-69
2023/04/23 01:27:10;;;;;;;;;;;;;;;11.57;100.00;96107.88;5038652;28;19917;-72
2023/04/23 01:29:37;;;;;;;;;;;;;;;11.60;100.00;96115.34;5043228;28;19917;-71
2023/04/23 01:32:02;;;;;;;;;;;;;;;11.61;100.00;96111.41;5051095;28;19921;-68
2023/04/23 01:34:29;;;;;;;;;;;;;;;11.62;100.00;96124.75;5052838;28;20015;-70
2023/04/23 01:36:55;;;;;;;;;;;;;;;11.60;100.00;96124.34;5051806;28;19995;-71
2023/04/23 01:39:20;;;;;;;;;;;;;;;11.56;100.00;96126.31;5044888;28;20447;-72
2023/04/23 01:41:46;;;;;;;;;;;;;;;11.52;100.00;96127.44;5046783;28;20365;-70
2023/04/23 01:44:11;;;;;;;;;;;;;;;11.49;100.00;96134.50;5041677;28;19923;-69
2023/04/23 01:46:37;;;;;;;;;;;;;;;11.48;100.00;96141.91;5043721;28;19928;-73
2023/04/23 01:49:02;;;;;;;;;;;;;;;11.53;100.00;96145.47;5059160;28;19908;-69
2023/04/23 01:51:29;;;;;;;;;;;;;;;11.53;100.00;96148.22;5058539;28;19924;-71
2023/04/23 01:53:54;;;;;;;;;;;;;;;11.50;100.00;96146.25;5043983;28;19928;-72
2023/04/23 01:56:24;;;;;;;;;;;;;;;11.48;100.00;96150.16;5038604;28;19917;-71
2023/04/23 01:58:50;;;;;;;;;;;;;;;11.43;100.00;96142.31;5043267;28;19916;-72
2023/04/23 02:01:15;;;;;;;;;;;;;;;11.37;100.00;96157.56;5038604;28;19917;-72
2023/04/23 02:03:41;;;;;;;;;;;;;;;11.50;100.00;96154.47;5041449;28;20055;-72
2023/04/23 02:06:06;;;;;;;;;;;;;;;11.59;100.00;96152.94;5037201;28;20346;-71
2023/04/23 02:08:31;;;;;;;;;;;;;;;11.67;100.00;96156.50;5042967;28;19921;-71
2023/04/23 02:10:57;;;;;;;;;;;;;;;11.64;100.00;96149.81;5043699;28;19927;-70
2023/04/23 02:13:22;;;;;;;;;;;;;;;11.54;100.00;96153.31;5038450;28;20362;-69
2023/04/23 02:15:47;;;;;;;;;;;;;;;11.44;100.00;96160.31;5042720;28;19965;-72
2023/04/23 02:18:12;;;;;;;;;;;;;;;11.22;100.00;96162.19;5037436;28;19916;-72
2023/04/23 02:20:39;;;;;;;;;;;;;;;11.18;100.00;96155.91;5042456;28;19962;-72
2023/04/23 02:23:06;;;;;;;;;;;;;;;10.98;100.00;96158.13;5036132;28;19925;-69
2023/04/23 02:25:32;;;;;;;;;;;;;;;10.91;100.00;96155.34;5041582;28;19924;-71
2023/04/23 02:27:58;;;;;;;;;;;;;;;10.90;100.00;96162.78;5042181;28;19952;-72
2023/04/23 02:30:24;;;;;;;;;;;;;;;10.89;100.00;96163.16;5036750;28;19920;-72
2023/04/23 02:32:50;;;;;;;;;;;;;;;10.90;100.00;96159.25;5039514;28;19921;-72
2023/04/23 02:35:15;;;;;;;;;;;;;;;10.93;100.00;96169.47;5037525;28;19924;-71
2023/04/23 02:37:41;;;;;;;;;;;;;;;10.83;100.00;96168.22;5042299;28;19975;-72
2023/04/23 02:40:06;;;;;;;;;;;;;;;10.68;100.00;96166.56;5037114;28;19970;-72
2023/04/23 02:42:32;;;;;;;;;;;;;;;10.62;100.00;96166.09;5042053;28;20297;-72
2023/04/23 02:44:57;;;;;;;;;;;;;;;10.63;100.00;96173.16;5040789;28;19921;-71
2023/04/23 02:47:22;;;;;;;;;;;;;;;10.54;100.00;96172.69;5037231;28;20711;-72
2023/04/23 02:49:48;;;;;;;;;;;;;;;10.39;100.00;96176.47;5050429;28;20004;-71
2023/04/23 02:52:13;;;;;;;;;;;;;;;10.37;100.00;96178.81;5037689;28;20043;-72
2023/04/23 02:54:38;;;;;;;;;;;;;;;10.32;100.00;96180.72;5040014;28;20339;-72
2023/04/23 02:57:04;;;;;;;;;;;;;;;10.25;100.00;96177.91;5038494;28;19921;-70
2023/04/23 02:59:29;;;;;;;;;;;;;;;10.35;100.00;96170.97;5041428;28;20385;-71
2023/04/23 03:01:55;;;;;;;;;;;;;;;10.29;100.00;96178.72;5041597;28;20274;-71
2023/04/23 03:04:20;;;;;;;;;;;;;;;10.32;100.00;96180.72;5037545;28;19921;-71
2023/04/23 03:06:45;;;;;;;;;;;;;;;10.32;100.00;96177.22;5041692;28;19924;-71
2023/04/23 03:09:11;;;;;;;;;;;;;;;10.46;100.00;96174.59;5037501;28;19935;-71
2023/04/23 03:11:36;;;;;;;;;;;;;;;10.48;100.00;96172.28;5042056;28;19983;-71
2023/04/23 03:14:02;;;;;;;;;;;;;;;10.57;100.00;96171.16;5038172;28;19917;-69
2023/04/23 03:16:27;;;;;;;;;;;;;;;10.69;100.00;96171.63;5038973;28;19923;-70
2023/04/23 03:18:52;;;;;;;;;;;;;;;10.76;100.00;96170.91;5041257;28;19917;-72
2023/04/23 03:21:18;;;;;;;;;;;;;;;10.73;100.00;96166.19;5035919;28;19959;-71
2023/04/23 03:23:43;;;;;;;;;;;;;;;10.72;100.00;96172.84;5041753;28;19921;-71
2023/04/23 03:26:08;;;;;;;;;;;;;;;10.66;100.00;96172.41;5037121;28;20012;-72
2023/04/23 03:28:34;;;;;;;;;;;;;;;10.43;100.00;96175.34;5040841;28;19931;-71
2023/04/23 03:30:59;;;;;;;;;;;;;;;10.33;100.00;96184.25;5042649;28;19920;-72
2023/04/23 03:33:24;;;;;;;;;;;;;;;10.29;100.00;96183.41;5038031;28;19924;-72
2023/04/23 03:35:49;;;;;;;;;;;;;;;10.26;100.00;96178.69;5045308;28;19916;-71
2023/04/23 03:38:15;;;;;;;;;;;;;;;10.36;100.00;96180.75;5040947;28;19932;-72
2023/04/23 03:40:40;;;;;;;;;;;;;;;10.38;100.00;96178.44;5045955;28;19920;-72
2023/04/23 03:43:05;;;;;;;;;;;;;;;10.28;100.00;96177.16;5040527;28;19971;-71
2023/04/23 03:45:31;;;;;;;;;;;;;;;10.30;100.00;96180.28;5045360;28;19983;-70
2023/04/23 03:47:56;;;;;;;;;;;;;;;10.32;100.00;96164.31;5045437;28;19916;-71
2023/04/23 03:50:21;;;;;;;;;;;;;;;10.24;100.00;96172.78;5041553;28;20122;-73
2023/04/23 03:52:46;;;;;;;;;;;;;;;10.19;100.00;96178.59;5045497;28;20058;-73
2023/04/23 03:55:12;;;;;;;;;;;;;;;10.31;100.00;96170.16;5040407;28;19962;-73
2023/04/23 03:57:37;;;;;;;;;;;;;;;10.46;100.00;96177.34;5044748;28;20008;-72
2023/04/23 04:00:03;;;;;;;;;;;;;;;10.45;100.00;96166.75;5043235;28;20304;-68
2023/04/23 04:02:29;;;;;;;;;;;;;;;10.41;100.00;96164.00;5042733;28;19924;-73
2023/04/23 04:04:55;;;;;;;;;;;;;;;10.45;100.00;96178.50;5044614;28;19924;-72
2023/04/23 04:07:21;;;;;;;;;;;;;;;10.32;100.00;96177.22;5041851;28;19916;-73
2023/04/23 04:09:48;;;;;;;;;;;;;;;10.31;100.00;96167.41;5058728;28;19916;-73
2023/04/23 04:12:13;;;;;;;;;;;;;;;10.28;100.00;96173.59;5053598;28;19917;-73
2023/04/23 04:14:39;;;;;;;;;;;;;;;10.33;100.00;96176.84;5051221;28;20288;-74
2023/04/23 04:17:05;;;;;;;;;;;;;;;10.28;100.00;96171.69;5045212;28;20623;-69
2023/04/23 04:19:31;;;;;;;;;;;;;;;10.18;100.00;96164.16;5045219;28;19917;-71
2023/04/23 04:21:57;;;;;;;;;;;;;;;10.09;100.00;96172.66;5042672;28;19928;-71
2023/04/23 04:24:24;;;;;;;;;;;;;;;10.12;100.00;96169.19;5040052;28;19917;-73
2023/04/23 04:26:51;;;;;;;;;;;;;;;10.21;100.00;96179.81;5044009;28;19917;-72
2023/04/23 04:29:18;;;;;;;;;;;;;;;10.33;100.00;96171.38;5039480;28;19917;-71
2023/04/23 04:31:45;;;;;;;;;;;;;;;10.39;100.00;96169.06;5043814;28;19978;-71
2023/04/23 04:34:13;;;;;;;;;;;;;;;10.50;100.00;96160.94;5037430;28;19928;-72
2023/04/23 04:36:38;;;;;;;;;;;;;;;10.47;100.00;96167.16;5044981;28;20029;-71
2023/04/23 04:39:04;;;;;;;;;;;;;;;10.42;100.00;96170.25;5040695;28;19967;-69
2023/04/23 04:41:29;;;;;;;;;;;;;;;10.45;100.00;96173.00;5045809;28;19928;-72
2023/04/23 04:43:54;;;;;;;;;;;;;;;10.44;100.00;96170.66;5046566;28;20416;-71
2023/04/23 04:46:20;;;;;;;;;;;;;;;10.37;100.00;96171.41;5042460;28;20000;-71
2023/04/23 04:48:48;;;;;;;;;;;;;;;10.38;100.00;96175.69;5045378;28;19926;-71
2023/04/23 04:51:14;;;;;;;;;;;;;;;10.43;100.00;96178.09;5048464;28;19917;-70
2023/04/23 04:53:39;;;;;;;;;;;;;;;10.56;100.00;96181.31;5067539;28;19924;-69
2023/04/23 04:56:04;;;;;;;;;;;;;;;10.65;100.00;96181.00;5024198;28;20369;-70
2023/04/23 04:58:30;;;;;;;;;;;;;;;10.59;100.00;96182.50;5043651;28;19916;-72
2023/04/23 05:00:55;;;;;;;;;;;;;;;10.63;100.00;96186.06;5043233;28;19917;-71
2023/04/23 05:03:21;;;;;;;;;;;;;;;10.66;100.00;96186.09;5039844;28;20006;-72
2023/04/23 05:05:47;;;;;;;;;;;;;;;10.54;100.00;96180.91;5042975;28;20410;-72
2023/04/23 05:08:15;;;;;;;;;;;;;;;10.40;100.00;96178.84;5038789;28;20291;-70
2023/04/23 05:10:41;;;;;;;;;;;;;;;10.41;100.00;96176.91;5044973;28;19924;-72
2023/04/23 05:13:06;;;;;;;;;;;;;;;10.39;100.00;96177.28;5038949;28;20273;-70
2023/04/23 05:15:31;;;;;;;;;;;;;;;10.35;100.00;96175.66;5042568;28;19924;-71
2023/04/23 05:17:57;;;;;;;;;;;;;;;10.47;100.00;96180.84;5058229;28;19904;-69
2023/04/23 05:20:22;;;;;;;;;;;;;;;10.38;100.00;96175.69;5058962;28;20368;-71
2023/04/23 05:22:47;;;;;;;;;;;;;;;10.46;100.00;96179.28;5044044;28;19967;-72
2023/04/23 05:25:12;;;;;;;;;;;;;;;10.32;100.00;96178.00;5038396;28;19925;-72
2023/04/23 05:27:38;;;;;;;;;;;;;;;10.25;100.00;96169.69;5043690;28;20400;-71
2023/04/23 05:30:05;;;;;;;;;;;;;;;9.92;100.00;96173.25;5039195;28;19975;-70
2023/04/23 05:32:31;;;;;;;;;;;;;;;9.79;100.00;96172.75;5043670;28;20340;-72
2023/04/23 05:34:56;;;;;;;;;;;;;;;9.80;100.00;96170.81;5041400;28;20011;-71
2023/04/23 05:37:21;;;;;;;;;;;;;;;9.86;100.00;96181.03;5038704;28;19924;-71
2023/04/23 05:39:46;;;;;;;;;;;;;;;9.93;100.00;96174.84;5044700;28;19924;-72
2023/04/23 05:42:12;;;;;;;;;;;;;;;9.89;100.00;96165.81;5022643;28;19928;-72
2023/04/23 05:44:37;;;;;;;;;;;;;;;9.95;100.00;96162.34;5043437;28;19923;-72
2023/04/23 05:47:03;;;;;;;;;;;;;;;9.93;100.00;96167.41;5043093;28;19931;-70
2023/04/23 05:49:28;;;;;;;;;;;;;;;10.24;100.00;96165.38;5041619;28;19916;-71
2023/04/23 05:51:54;;;;;;;;;;;;;;;10.48;100.00;96158.56;5042338;28;19939;-71
2023/04/23 05:54:19;;;;;;;;;;;;;;;10.66;100.00;96161.44;5037955;28;19921;-71
2023/04/23 05:56:45;;;;;;;;;;;;;;;10.84;100.00;96167.06;5041661;28;19920;-70
2023/04/23 05:59:10;;;;;;;;;;;;;;;11.00;100.00;96174.19;5038235;28;20498;-70
2023/04/23 06:01:35;;;;;;;;;;;;;;;10.94;100.00;96173.75;5042810;28;19921;-71
2023/04/23 06:04:01;;;;;;;;;;;;;;;10.94;100.00;96178.47;5042868;28;20274;-70
2023/04/23 06:06:26;;;;;;;;;;;;;;;10.92;100.00;96176.09;5037124;28;19952;-71
2023/04/23 06:08:52;;;;;;;;;;;;;;;10.93;100.00;96176.88;5042943;28;19923;-71
2023/04/23 06:11:17;;;;;;;;;;;;;;;10.99;100.00;96175.38;5019797;28;19971;-71
2023/04/23 06:13:42;;;;;;;;;;;;;;;11.12;100.00;96179.34;5042470;28;19963;-71
2023/04/23 06:16:08;;;;;;;;;;;;;;;11.15;100.00;96180.56;5044985;28;20016;-71
2023/04/23 06:18:33;;;;;;;;;;;;;;;11.21;100.00;96182.53;5047968;28;19920;-71
2023/04/23 06:21:03;;;;;;;;;;;;;;;11.09;100.00;96180.09;5046978;28;20298;-71
2023/04/23 06:23:29;;;;;;;;;;;;;;;11.03;100.00;96184.38;5041516;28;19917;-70
2023/04/23 06:25:54;;;;;;;;;;;;;;;11.12;100.00;96189.53;5042021;28;19927;-71
2023/04/23 06:28:19;;;;;;;;;;;;;;;11.12;100.00;96187.56;5037558;28;19932;-72
2023/04/23 06:30:44;;;;;;;;;;;;;;;11.13;100.00;96180.94;5042438;28;19928;-72
2023/04/23 06:33:10;;;;;;;;;;;;;;;11.17;100.00;96170.78;5037771;28;20002;-72
2023/04/23 06:35:35;;;;;;;;;;;;;;;11.27;100.00;96171.97;5041162;28;19917;-71
2023/04/23 06:38:00;;;;;;;;;;;;;;;11.34;100.00;96180.25;5042692;28;19924;-71
2023/04/23 06:40:25;;;;;;;;;;;;;;;11.38;100.00;96170.09;5037034;28;20389;-72
2023/04/23 06:42:51;;;;;;;;;;;;;;;11.25;100.00;96171.59;5041869;28;19959;-72
2023/04/23 06:45:16;;;;;;;;;;;;;;;11.35;100.00;96170.09;5037486;28;19916;-70
2023/04/23 06:47:42;;;;;;;;;;;;;;;11.51;100.00;96169.78;5050099;28;19931;-71
2023/04/23 06:50:07;;;;;;;;;;;;;;;11.65;100.00;96162.38;5051418;28;19956;-71
2023/04/23 06:52:33;;;;;;;;;;;;;;;11.19;100.00;96165.69;5052205;28;19952;-71
2023/04/23 06:54:58;;;;;;;;;;;;;;;11.03;100.00;96160.50;5048660;28;20094;-71
2023/04/23 06:57:24;;;;;;;;;;;;;;;11.17;100.00;96153.56;5040760;28;20281;-71
2023/04/23 06:59:49;;;;;;;;;;;;;;;11.54;100.00;96150.59;5041585;28;19917;-71
2023/04/23 07:02:15;;;;;;;;;;;;;;;11.81;100.00;96144.78;5019767;28;19920;-70
2023/04/23 07:04:40;;;;;;;;;;;;;;;12.21;100.00;96143.72;5042352;28;19998;-71
2023/04/23 07:07:06;;;;;;;;;;;;;;;12.31;100.00;96149.59;5036374;28;19917;-71
2023/04/23 07:09:31;;;;;;;;;;;;;;;12.31;100.00;96149.59;5038765;28;19916;-72
2023/04/23 07:11:56;;;;;;;;;;;;;;;12.34;100.00;96143.31;5040562;28;19921;-71
2023/04/23 07:14:21;;;;;;;;;;;;;;;12.31;100.00;96157.84;5037111;28;20373;-73
2023/04/23 07:16:46;;;;;;;;;;;;;;;12.34;100.00;96157.06;5041859;28;19917;-71
2023/04/23 07:19:12;;;;;;;;;;;;;;;12.08;100.00;96153.47;5037027;28;20358;-71
2023/04/23 07:21:37;;;;;;;;;;;;;;;12.18;100.00;96151.94;5007965;28;19916;-72
2023/04/23 07:24:05;;;;;;;;;;;;;;;12.27;100.00;96143.31;5039533;28;19917;-69
2023/04/23 07:26:34;;;;;;;;;;;;;;;12.26;100.00;96139.78;5040868;28;19948;-72
2023/04/23 07:29:00;;;;;;;;;;;;;;;12.28;100.00;96137.44;5041238;28;20427;-71
2023/04/23 07:31:25;;;;;;;;;;;;;;;12.62;100.00;96143.31;5036710;28;19928;-71
2023/04/23 07:33:51;;;;;;;;;;;;;;;12.73;100.00;96142.50;5041896;28;19940;-72
2023/04/23 07:36:16;;;;;;;;;;;;;;;12.47;100.00;96139.00;5035875;28;20273;-71
2023/04/23 07:38:41;;;;;;;;;;;;;;;12.46;100.00;96128.41;5041415;28;19928;-72
2023/04/23 07:41:07;;;;;;;;;;;;;;;12.73;100.00;96129.59;5036871;28;19917;-71
2023/04/23 07:43:32;;;;;;;;;;;;;;;12.68;100.00;96124.47;5041644;28;20338;-71
2023/04/23 07:45:57;;;;;;;;;;;;;;;12.45;100.00;96116.66;5023322;28;19962;-71
2023/04/23 07:48:22;;;;;;;;;;;;;;;12.39;100.00;96118.22;5036702;28;20879;-72
2023/04/23 07:50:48;;;;;;;;;;;;;;;12.78;100.00;96109.94;5041630;28;19928;-71
2023/04/23 07:53:13;;;;;;;;;;;;;;;12.86;100.00;96112.69;5036590;28;19921;-72
2023/04/23 07:55:38;;;;;;;;;;;;;;;13.20;98.72;96108.25;5041002;28;20424;-72
2023/04/23 07:58:04;;;;;;;;;;;;;;;13.48;97.82;96103.84;5018565;28;19921;-69
2023/04/23 08:00:29;;;;;;;;;;;;;;;13.32;97.68;96101.53;5041452;28;19924;-71
2023/04/23 08:02:54;;;;;;;;;;;;;;;13.68;96.62;96098.63;5041834;28;19952;-71
2023/04/23 08:05:20;;;;;;;;;;;;;;;13.86;93.61;96112.28;5035623;28;19927;-71
2023/04/23 08:07:46;;;;;;;;;;;;;;;14.61;90.36;96111.00;5040950;28;19917;-71
2023/04/23 08:10:11;;;;;;;;;;;;;;;14.34;91.35;96108.03;5036413;28;19962;-71
2023/04/23 08:12:37;;;;;;;;;;;;;;;13.95;92.34;96109.09;5040271;28;19971;-71
2023/04/23 08:15:02;;;;;;;;;;;;;;;14.04;94.81;96111.41;5039561;28;19927;-70
2023/04/23 08:17:28;;;;;;;;;;;;;;;14.49;89.24;96098.44;5038709;28;20301;-71
2023/04/23 08:19:53;;;;;;;;;;;;;;;13.93;90.19;96094.94;5043624;28;19956;-71
2023/04/23 08:22:18;;;;;;;;;;;;;;;14.84;88.02;96099.34;5061749;28;20035;-71
2023/04/23 08:24:45;;;;;;;;;;;;;;;15.55;84.71;96088.69;5053773;28;20274;-72
2023/04/23 08:27:10;;;;;;;;;;;;;;;15.12;89.37;96088.44;5040644;28;20011;-72
2023/04/23 08:29:35;;;;;;;;;;;;;;;16.25;80.21;96085.34;5044787;28;20441;-71
2023/04/23 08:32:01;;;;;;;;;;;;;;;16.56;75.24;96084.47;5043949;28;20396;-71
2023/04/23 08:34:26;;;;;;;;;;;;;;;17.32;70.28;96081.09;5039254;28;20362;-70
2023/04/23 08:36:51;;;;;;;;;;;;;;;17.89;67.22;96076.38;5043585;28;19969;-70
2023/04/23 08:39:17;;;;;;;;;;;;;;;17.44;69.60;96076.94;5039833;28;20381;-71
2023/04/23 08:41:44;;;;;;;;;;;;;;;15.21;84.17;96074.91;5044384;28;20059;-71
2023/04/23 08:44:16;;;;;;;;;;;;;;;16.49;75.97;96079.06;5039833;28;20058;-70
2023/04/23 08:46:42;;;;;;;;;;;;;;;16.60;71.56;96074.91;5049795;28;19916;-70
2023/04/23 08:49:11;;;;;;;;;;;;;;;13.68;89.98;96071.13;5058749;28;19925;-68
2023/04/23 08:51:41;;;;;;;;;;;;;;;15.12;86.54;96069.91;5049163;28;20332;-71
2023/04/23 08:54:10;;;;;;;;;;;;;;;14.58;85.60;96073.22;5037921;28;20328;-70
2023/04/23 08:56:36;;;;;;;;;;;;;;;14.88;84.28;96063.47;5043609;28;20365;-69
2023/04/23 08:59:02;;;;;;;;;;;;;;;15.95;82.20;96055.81;5043202;28;19963;-70
2023/04/23 09:01:28;;;;;;;;;;;;;;;17.88;64.89;96052.66;5042245;28;20007;-70
2023/04/23 09:03:54;;;;;;;;;;;;;;;17.69;65.29;96051.47;5044137;28;20004;-72
2023/04/23 09:06:20;;;;;;;;;;;;;;;14.97;80.21;96058.25;5038770;28;19923;-71
2023/04/23 09:08:45;;;;;;;;;;;;;;;16.01;78.42;96047.84;5042735;28;19921;-71
2023/04/23 09:11:11;;;;;;;;;;;;;;;15.04;81.39;96041.63;5038992;28;20286;-72
2023/04/23 09:13:36;;;;;;;;;;;;;;;14.90;88.05;96039.81;5044249;28;20023;-72
2023/04/23 09:16:03;;;;;;;;;;;;;;;15.83;84.61;96042.59;5041684;28;19924;-69
2023/04/23 09:18:29;;;;;;;;;;;;;;;17.28;73.21;96038.91;5032954;28;20004;-72
2023/04/23 09:20:54;;;;;;;;;;;;;;;18.18;62.77;96042.47;5023395;28;19987;-72
2023/04/23 09:23:20;;;;;;;;;;;;;;;18.29;61.92;96037.44;5018431;28;20593;-71
2023/04/23 09:25:45;;;;;;;;;;;;;;;18.36;64.26;96030.94;5024442;28;19932;-73
2023/04/23 09:28:11;;;;;;;;;;;;;;;18.97;62.15;96032.16;5019129;28;19925;-70
2023/04/23 09:30:43;;;;;;;;;;;;;;;20.24;56.55;96033.56;5007227;28;20008;-72
2023/04/23 09:33:12;;;;;;;;;;;;;;;20.48;55.79;96025.63;5031219;28;20374;-72
2023/04/23 09:35:37;;;;;;;;;;;;;;;21.26;54.74;96032.47;5015692;28;19924;-72
2023/04/23 09:38:06;;;;;;;;;;;;;;;;;;5029946;28;20011;-70
2023/04/23 09:40:32;;;;;;;;;;;;;;;21.36;52.02;96022.19;5031244;28;19928;-69
2023/04/23 09:42:57;;;;;;;;;;;;;;;20.79;51.39;96019.44;5024286;28;20366;-70
2023/04/23 09:45:24;;;;;;;;;;;;;;;21.20;49.39;96015.56;5017777;28;20020;-69
2023/04/23 09:47:50;;;;;;;;;;;;;;;21.46;47.53;96011.88;5022913;28;20016;-69
2023/04/23 09:50:15;;;;;;;;;;;;;;;21.39;46.74;96013.69;5017293;28;20019;-71
2023/04/23 09:52:41;;;;;;;;;;;;;;;21.99;45.23;96009.03;5023265;28;19961;-71
2023/04/23 09:55:06;;;;;;;;;;;;;;;22.61;45.76;96022.06;5017032;28;19924;-70
2023/04/23 09:57:36;;;;;;;;;;;;;;;21.83;47.57;96010.06;5022683;28;19921;-71
2023/04/23 10:00:11;;;;;;;;;;;;;;;19.90;52.54;96015.59;5023053;28;20369;-71
2023/04/23 10:02:37;;;;;;;;;;;;;;;19.75;54.00;96006.13;5023481;28;20262;-71
2023/04/23 10:05:12;;;;;;;;;;;;;;;20.21;53.27;96004.66;5019733;28;19925;-68
2023/04/23 10:07:38;;;;;;;;;;;;;;;20.10;52.16;96001.44;5022473;28;19921;-71
2023/04/23 10:10:04;;;;;;;;;;;;;;;20.04;50.88;96001.22;5020026;28;19921;-70
2023/04/23 10:12:30;;;;;;;;;;;;;;;20.03;48.59;96001.69;5022739;28;19917;-71
2023/04/23 10:14:58;;;;;;;;;;;;;;;19.44;48.25;95999.06;5022736;28;19921;-71
2023/04/23 10:17:23;;;;;;;;;;;;;;;18.88;50.04;95986.41;5016646;28;20159;-71
2023/04/23 10:19:49;;;;;;;;;;;;;;;19.52;48.92;95988.53;5023946;28;20050;-71
2023/04/23 10:22:15;;;;;;;;;;;;;;;20.46;47.42;95988.38;5021150;28;19921;-71
2023/04/23 10:24:42;;;;;;;;;;;;;;;19.33;49.47;95990.28;5023417;28;19917;-71
2023/04/23 10:27:10;;;;;;;;;;;;;;;18.75;51.06;95979.25;5017293;28;19917;-71
2023/04/23 10:29:35;;;;;;;;;;;;;;;19.65;49.82;95978.22;5022792;28;19921;-70
2023/04/23 10:32:02;;;;;;;;;;;;;;;20.48;48.86;95967.22;5021832;28;20427;-71
2023/04/23 10:34:28;;;;;;;;;;;;;;;19.75;50.88;95970.78;5017366;28;19923;-72
2023/04/23 10:36:54;;;;;;;;;;;;;;;20.72;48.96;95966.81;5021763;28;19918;-72
2023/04/23 10:39:20;;;;;;;;;;;;;;;20.17;48.81;95958.75;5018018;28;20003;-71
2023/04/23 10:41:47;;;;;;;;;;;;;;;17.82;55.13;95958.19;5021857;28;20445;-70
2023/04/23 10:44:12;;;;;;;;;;;;;;;18.60;53.99;95954.66;4998259;28;19923;-71
2023/04/23 10:46:38;;;;;;;;;;;;;;;20.05;50.92;95940.84;5021521;28;20000;-70
2023/04/23 10:49:09;;;;;;;;;;;;;;;21.61;46.58;95934.88;5018121;28;20373;-68
2023/04/23 10:51:35;;;;;;;;;;;;;;;22.04;45.12;95929.56;5023163;28;19948;-69
2023/04/23 10:54:04;;;;;;;;;;;;;;;22.22;45.02;95928.84;5023692;28;20386;-69
2023/04/23 10:56:29;;;;;;;;;;;;;;;21.69;46.86;95932.59;5023072;28;19924;-70
2023/04/23 10:58:55;;;;;;;;;;;;;;;21.20;45.90;95936.84;5025626;28;19917;-70
2023/04/23 11:01:23;;;;;;;;;;;;;;;20.98;48.54;95932.06;5015954;28;19932;-70
2023/04/23 11:03:50;;;;;;;;;;;;;;;21.88;46.27;95923.06;5022330;28;19917;-71
2023/04/23 11:06:38;;;;;;;;;;;;;;;22.70;44.54;95929.19;5016970;28;19921;-70
2023/04/23 11:09:24;;;;;;;;;;;;;;;20.52;47.61;95933.72;5000095;28;19953;-69
2023/04/23 11:11:49;;;;;;;;;;;;;;;20.95;47.80;95929.41;5021568;28;19921;-70
2023/04/23 11:14:14;;;;;;;;;;;;;;;21.82;46.63;95918.53;5016389;28;20400;-70
2023/04/23 11:16:40;;;;;;;;;;;;;;;19.15;52.88;95910.31;5021275;28;19921;-69
2023/04/23 11:19:11;;;;;;;;;;;;;;;19.74;52.46;95908.13;5017824;28;19917;-68
2023/04/23 11:21:55;;;;;;;;;;;;;;;20.35;49.96;95900.50;5021689;28;19967;-70
2023/04/23 11:24:21;;;;;;;;;;;;;;;18.52;53.28;95900.59;4998775;28;19917;-70
2023/04/23 11:26:47;;;;;;;;;;;;;;;19.91;51.72;95894.09;5022069;28;20353;-70
2023/04/23 11:29:14;;;;;;;;;;;;;;;20.44;50.74;95895.03;5019193;28;19925;-69
2023/04/23 11:31:39;;;;;;;;;;;;;;;20.62;50.10;95896.44;5021239;28;19921;-70
2023/04/23 11:34:07;;;;;;;;;;;;;;;20.73;48.75;95898.81;5016600;28;19928;-69
2023/04/23 11:36:32;;;;;;;;;;;;;;;20.84;49.49;95890.84;5022019;28;19917;-70
2023/04/23 11:38:57;;;;;;;;;;;;;;;20.83;49.38;95878.16;5022375;28;19982;-71
2023/04/23 11:41:23;;;;;;;;;;;;;;;20.53;49.75;95877.63;5017535;28;20803;-73
2023/04/23 11:43:49;;;;;;;;;;;;;;;20.55;49.68;95874.41;5021168;28;19928;-71
2023/04/23 11:46:14;;;;;;;;;;;;;;;20.00;49.99;95869.91;5016619;28;20051;-72
2023/04/23 11:48:39;;;;;;;;;;;;;;;20.41;51.42;95868.09;5020786;28;20254;-72
2023/04/23 11:51:04;;;;;;;;;;;;;;;20.61;49.68;95867.81;5021623;28;19921;-65
2023/04/23 11:53:30;;;;;;;;;;;;;;;20.93;47.99;95865.06;5034090;28;19921;-70
2023/04/23 11:55:56;;;;;;;;;;;;;;;20.92;48.02;95852.38;5023878;28;19917;-70
2023/04/23 11:58:22;;;;;;;;;;;;;;;20.36;49.67;95852.00;5021705;28;20502;-70
2023/04/23 12:00:48;;;;;;;;;;;;;;;20.23;49.94;95852.06;5025877;28;20340;-68
2023/04/23 12:03:15;;;;;;;;;;;;;;;20.53;49.71;95843.47;5020501;28;19917;-68
2023/04/23 12:05:42;;;;;;;;;;;;;;;20.43;49.76;95843.41;5024490;28;19925;-69
2023/04/23 12:08:09;;;;;;;;;;;;;;;21.00;49.21;95840.53;5003502;28;20031;-69
2023/04/23 12:10:41;;;;;;;;;;;;;;;21.38;47.57;95833.84;5024713;28;20382;-70
2023/04/23 12:13:06;;;;;;;;;;;;;;;21.49;49.32;95835.47;5020412;28;20313;-70
2023/04/23 12:15:31;;;;;;;;;;;;;;;21.13;48.29;95837.63;5029235;28;19928;-68
2023/04/23 12:18:09;;;;;;;;;;;;;;;21.11;48.79;95834.53;5046692;28;19985;-68
2023/04/23 12:20:35;;;;;;;;;;;;;;;20.89;50.33;95829.03;5030351;28;19925;-69
2023/04/23 12:23:04;;;;;;;;;;;;;;;20.43;51.15;95828.72;5026897;28;19921;-69
2023/04/23 12:25:29;;;;;;;;;;;;;;;19.97;52.38;95826.38;5025220;28;20317;-69
2023/04/23 12:27:58;;;;;;;;;;;;;;;20.17;52.46;95814.19;5025694;28;19921;-72
2023/04/23 12:30:27;;;;;;;;;;;;;;;19.94;52.39;95826.50;5021131;28;19963;-70
2023/04/23 12:32:57;;;;;;;;;;;;;;;19.72;53.18;95812.53;5024260;28;20400;-70
2023/04/23 12:35:36;;;;;;;;;;;;;;;19.65;54.13;95819.09;5018995;28;20120;-69